Time;durP1;ratioP1;P1;durP2;ratioP2;P2;SDS_P1;SDS_P2;PMS_P1;PMS_P2;Temp;Humidity;BMP_temperature;BMP_pressure;BME280_temperature;BME280_humidity;BME280_pressure;Samples;Min_cycle;Max_cycle;Signal;HPM_P1;HPM_P2
2022/08/21 00:01:14;;;;;;;;;;;538.30;2406.40;;;;;;5073476;28;20358;-54
2022/08/21 00:03:40;;;;;;;;;;;538.20;2406.40;;;;;;5073255;28;19919;-54
2022/08/21 00:06:06;;;;;;;;;;;538.20;2406.40;;;;;;5073529;28;20011;-57
2022/08/21 00:08:31;;;;;;;;;;;538.20;2406.40;;;;;;5073276;28;19915;-56
2022/08/21 00:10:57;;;;;;;;;;;538.20;2406.40;;;;;;5073470;28;20362;-54
2022/08/21 00:13:23;;;;;;;;;;;538.20;2406.40;;;;;;5073264;28;19913;-54
2022/08/21 00:15:49;;;;;;;;;;;538.10;2406.40;;;;;;5073454;28;19947;-54
2022/08/21 00:18:15;;;;;;;;;;;538.20;2406.40;;;;;;5073485;28;20029;-54
2022/08/21 00:20:42;;;;;;;;;;;538.20;2406.40;;;;;;5073138;28;19920;-54
2022/08/21 00:23:08;;;;;;;;;;;538.30;2406.40;;;;;;5073133;28;19931;-54
2022/08/21 00:25:34;;;;;;;;;;;538.30;2406.40;;;;;;5073023;28;20355;-54
2022/08/21 00:28:01;;;;;;;;;;;538.20;2406.40;;;;;;5073014;28;19909;-54
2022/08/21 00:30:27;;;;;;;;;;;538.10;2406.40;;;;;;5073215;28;19912;-53
2022/08/21 00:32:54;;;;;;;;;;;538.20;2406.40;;;;;;5072828;28;19920;-54
2022/08/21 00:35:22;;;;;;;;;;;538.20;2406.40;;;;;;5073125;28;20366;-54
2022/08/21 00:37:47;;;;;;;;;;;538.20;2406.40;;;;;;5073016;28;19909;-53
2022/08/21 00:40:16;;;;;;;;;;;538.20;2406.40;;;;;;5072718;28;19916;-53
2022/08/21 00:42:42;;;;;;;;;;;538.20;2406.40;;;;;;5072752;28;19908;-54
2022/08/21 00:45:08;;;;;;;;;;;538.30;2406.40;;;;;;5072753;28;19912;-53
2022/08/21 00:47:34;;;;;;;;;;;538.20;2406.40;;;;;;5072525;28;19915;-57
2022/08/21 00:50:00;;;;;;;;;;;538.10;2406.40;;;;;;5072494;28;19908;-54
2022/08/21 00:52:28;;;;;;;;;;;538.00;2406.40;;;;;;5072775;28;20370;-57
2022/08/21 00:54:54;;;;;;;;;;;538.00;2406.40;;;;;;5072150;28;19920;-52
2022/08/21 00:57:22;;;;;;;;;;;538.20;2406.40;;;;;;5071939;28;20294;-55
2022/08/21 00:59:49;;;;;;;;;;;538.20;2406.40;;;;;;5071286;28;19916;-53
2022/08/21 01:02:15;;;;;;;;;;;538.20;2406.40;;;;;;5069221;28;19913;-57
2022/08/21 01:04:41;;;;;;;;;;;538.20;2406.40;;;;;;5071957;28;19917;-57
2022/08/21 01:07:06;;;;;;;;;;;538.20;2406.40;;;;;;5072416;28;19908;-53
2022/08/21 01:09:32;;;;;;;;;;;538.20;2406.40;;;;;;5072131;28;19915;-57
2022/08/21 01:11:58;;;;;;;;;;;538.20;2406.40;;;;;;5072311;28;19954;-58
2022/08/21 01:14:24;;;;;;;;;;;538.00;2406.40;;;;;;5071972;28;19916;-58
2022/08/21 01:16:51;;;;;;;;;;;538.00;2406.40;;;;;;5072233;28;19908;-54
2022/08/21 01:19:17;;;;;;;;;;;538.00;2406.40;;;;;;5072034;28;19916;-54
2022/08/21 01:21:43;;;;;;;;;;;538.00;2406.40;;;;;;5071913;28;19962;-58
2022/08/21 01:24:09;;;;;;;;;;;537.80;2406.40;;;;;;5072089;28;19909;-54
2022/08/21 01:26:35;;;;;;;;;;;537.70;2406.40;;;;;;5071358;28;20386;-53
2022/08/21 01:29:04;;;;;;;;;;;537.70;2406.40;;;;;;5071236;28;19962;-53
2022/08/21 01:31:31;;;;;;;;;;;537.60;2406.40;;;;;;5071362;28;19922;-54
2022/08/21 01:33:56;;;;;;;;;;;537.60;2406.40;;;;;;5071607;28;19914;-53
2022/08/21 01:36:23;;;;;;;;;;;537.60;2406.40;;;;;;5071264;28;19955;-54
2022/08/21 01:38:49;;;;;;;;;;;537.60;2406.40;;;;;;5071267;28;19952;-54
2022/08/21 01:41:15;;;;;;;;;;;537.60;2406.40;;;;;;5071036;28;19955;-53
2022/08/21 01:43:41;;;;;;;;;;;537.60;2406.40;;;;;;5071074;28;19909;-53
2022/08/21 01:46:07;;;;;;;;;;;537.60;2406.40;;;;;;5071189;28;19991;-55
2022/08/21 01:48:33;;;;;;;;;;;512.90;2380.80;;;;;;5070970;28;19915;-53
2022/08/21 01:50:59;;;;;;;;;;;512.90;2380.80;;;;;;5071341;28;19912;-54
2022/08/21 01:53:24;;;;;;;;;;;537.60;2406.40;;;;;;5070959;28;19908;-53
2022/08/21 01:55:50;;;;;;;;;;;512.90;2380.80;;;;;;5070863;28;19908;-54
2022/08/21 01:58:16;;;;;;;;;;;512.90;2380.80;;;;;;5070906;28;19959;-53
2022/08/21 02:00:41;;;;;;;;;;;537.60;2406.40;;;;;;5070748;28;19928;-55
2022/08/21 02:03:07;;;;;;;;;;;512.90;2380.80;;;;;;5071131;28;20336;-53
2022/08/21 02:05:32;;;;;;;;;;;512.90;2380.80;;;;;;5070411;28;20409;-55
2022/08/21 02:07:58;;;;;;;;;;;512.90;2380.80;;;;;;5070960;28;19909;-53
2022/08/21 02:10:26;;;;;;;;;;;512.90;2380.80;;;;;;5070639;28;19916;-53
2022/08/21 02:12:52;;;;;;;;;;;512.90;2380.80;;;;;;5069541;28;19931;-57
2022/08/21 02:15:18;;;;;;;;;;;537.60;2406.40;;;;;;5070786;28;20355;-54
2022/08/21 02:17:51;;;;;;;;;;;537.60;2406.40;;;;;;5070573;28;19908;-57
2022/08/21 02:20:22;;;;;;;;;;;537.60;2406.40;;;;;;5068224;28;19917;-58
2022/08/21 02:22:49;;;;;;;;;;;512.90;2380.80;;;;;;5070686;28;19961;-59
2022/08/21 02:25:15;;;;;;;;;;;512.90;2380.80;;;;;;5070661;28;20379;-57
2022/08/21 02:27:42;;;;;;;;;;;537.60;2406.40;;;;;;5070371;28;19912;-54
2022/08/21 02:30:09;;;;;;;;;;;537.70;2406.40;;;;;;5070779;28;19927;-59
2022/08/21 02:32:35;;;;;;;;;;;537.60;2406.40;;;;;;5067959;28;19927;-57
2022/08/21 02:35:01;;;;;;;;;;;537.60;2406.40;;;;;;5070280;28;19955;-53
2022/08/21 02:37:26;;;;;;;;;;;537.70;2406.40;;;;;;5070647;28;20354;-57
2022/08/21 02:39:52;;;;;;;;;;;537.80;2406.40;;;;;;5070300;28;19927;-54
2022/08/21 02:42:17;;;;;;;;;;;537.80;2406.40;;;;;;5070435;28;20282;-59
2022/08/21 02:44:43;;;;;;;;;;;537.80;2406.40;;;;;;5070405;28;19912;-54
2022/08/21 02:47:08;;;;;;;;;;;537.80;2406.40;;;;;;5071115;28;19939;-54
2022/08/21 02:49:34;;;;;;;;;;;537.80;2406.40;;;;;;5070735;28;19914;-57
2022/08/21 02:52:00;;;;;;;;;;;537.80;2406.40;;;;;;5070728;28;19908;-54
2022/08/21 02:54:25;;;;;;;;;;;537.80;2406.40;;;;;;5070808;28;20432;-53
2022/08/21 02:56:51;;;;;;;;;;;537.80;2406.40;;;;;;5070871;28;19908;-54
2022/08/21 02:59:16;;;;;;;;;;;537.80;2406.40;;;;;;5071203;28;19919;-53
2022/08/21 03:01:42;;;;;;;;;;;537.80;2406.40;;;;;;5070506;28;20409;-54
2022/08/21 03:04:07;;;;;;;;;;;537.80;2406.40;;;;;;5070476;28;19913;-54
2022/08/21 03:06:33;;;;;;;;;;;537.80;2406.40;;;;;;5070419;28;19916;-54
2022/08/21 03:08:59;;;;;;;;;;;537.80;2406.40;;;;;;5070746;28;20326;-54
2022/08/21 03:11:26;;;;;;;;;;;537.90;2406.40;;;;;;5070710;28;19955;-54
2022/08/21 03:13:52;;;;;;;;;;;537.90;2406.40;;;;;;5070378;28;20355;-54
2022/08/21 03:16:19;;;;;;;;;;;538.00;2406.40;;;;;;5070396;28;19944;-54
2022/08/21 03:18:44;;;;;;;;;;;538.00;2406.40;;;;;;5070565;28;20015;-53
2022/08/21 03:21:10;;;;;;;;;;;537.90;2406.40;;;;;;5070445;28;20394;-54
2022/08/21 03:23:36;;;;;;;;;;;537.90;2406.40;;;;;;5072091;28;19951;-54
2022/08/21 03:26:02;;;;;;;;;;;537.90;2406.40;;;;;;5074003;28;19912;-54
2022/08/21 03:28:28;;;;;;;;;;;538.00;2406.40;;;;;;5074175;28;20259;-54
2022/08/21 03:30:53;;;;;;;;;;;537.90;2406.40;;;;;;5073758;28;19920;-57
2022/08/21 03:33:20;;;;;;;;;;;537.90;2406.40;;;;;;5073934;28;19923;-55
2022/08/21 03:35:46;;;;;;;;;;;537.90;2406.40;;;;;;5073951;28;19912;-53
2022/08/21 03:38:12;;;;;;;;;;;537.90;2406.40;;;;;;5073835;28;19909;-54
2022/08/21 03:40:38;;;;;;;;;;;537.90;2406.40;;;;;;5073985;28;19978;-54
2022/08/21 03:43:04;;;;;;;;;;;537.90;2406.40;;;;;;5073619;28;19908;-54
2022/08/21 03:45:30;;;;;;;;;;;537.80;2406.40;;;;;;5073613;28;20267;-54
2022/08/21 03:47:59;;;;;;;;;;;537.70;2406.40;;;;;;5073733;28;19909;-54
2022/08/21 03:50:26;;;;;;;;;;;537.60;2406.40;;;;;;5073753;28;19939;-53
2022/08/21 03:52:51;;;;;;;;;;;537.60;2406.40;;;;;;5073501;28;19916;-54
2022/08/21 03:55:17;;;;;;;;;;;537.60;2406.40;;;;;;5073873;28;19908;-54
2022/08/21 03:57:43;;;;;;;;;;;537.70;2406.40;;;;;;5072474;28;19909;-53
2022/08/21 04:00:11;;;;;;;;;;;537.70;2406.40;;;;;;5073411;28;20329;-53
2022/08/21 04:02:37;;;;;;;;;;;537.80;2406.40;;;;;;5073694;28;19913;-53
2022/08/21 04:05:03;;;;;;;;;;;537.80;2406.40;;;;;;5073171;28;20381;-54
2022/08/21 04:07:28;;;;;;;;;;;537.80;2406.40;;;;;;5073619;28;19912;-53
2022/08/21 04:09:54;;;;;;;;;;;537.90;2406.40;;;;;;5073693;28;20368;-53
2022/08/21 04:12:20;;;;;;;;;;;537.90;2406.40;;;;;;5073328;28;19909;-55
2022/08/21 04:14:46;;;;;;;;;;;537.90;2406.40;;;;;;5073439;28;19922;-54
2022/08/21 04:17:11;;;;;;;;;;;537.90;2406.40;;;;;;5073292;28;19908;-54
2022/08/21 04:19:37;;;;;;;;;;;538.00;2406.40;;;;;;5073359;28;19916;-54
2022/08/21 04:22:03;;;;;;;;;;;538.00;2406.40;;;;;;5073226;28;19916;-54
2022/08/21 04:24:28;;;;;;;;;;;538.20;2406.40;;;;;;5073319;28;20006;-54
2022/08/21 04:26:54;;;;;;;;;;;538.10;2406.40;;;;;;5073067;28;19947;-54
2022/08/21 04:29:19;;;;;;;;;;;538.20;2406.40;;;;;;5072915;28;20293;-55
2022/08/21 04:31:45;;;;;;;;;;;538.30;2406.40;;;;;;5072937;28;19965;-53
2022/08/21 04:34:10;;;;;;;;;;;538.40;2406.40;;;;;;5072416;28;19912;-54
2022/08/21 04:36:36;;;;;;;;;;;538.50;2406.40;;;;;;5072830;28;19934;-58
2022/08/21 04:39:02;;;;;;;;;;;563.20;2432.00;;;;;;5072721;28;20248;-54
2022/08/21 04:41:28;;;;;;;;;;;563.30;2432.00;;;;;;5073056;28;19909;-58
2022/08/21 04:43:55;;;;;;;;;;;563.40;2432.00;;;;;;5072861;28;20269;-54
2022/08/21 04:46:20;;;;;;;;;;;563.60;2432.00;;;;;;5072497;28;19916;-54
2022/08/21 04:48:46;;;;;;;;;;;563.70;2432.00;;;;;;5073016;28;19909;-54
2022/08/21 04:51:14;;;;;;;;;;;563.80;2432.00;;;;;;5072583;28;19908;-54
2022/08/21 04:53:43;;;;;;;;;;;563.90;2432.00;;;;;;5072443;28;19912;-55
2022/08/21 04:56:11;;;;;;;;;;;563.90;2432.00;;;;;;5072762;28;20385;-54
2022/08/21 04:58:37;;;;;;;;;;;563.90;2432.00;;;;;;5072617;28;19908;-54
2022/08/21 05:01:03;;;;;;;;;;;563.90;2432.00;;;;;;5071976;28;19967;-57
2022/08/21 05:03:30;;;;;;;;;;;564.00;2432.00;;;;;;5072692;28;19995;-57
2022/08/21 05:05:56;;;;;;;;;;;563.90;2432.00;;;;;;5072138;28;19927;-58
2022/08/21 05:08:23;;;;;;;;;;;563.90;2432.00;;;;;;5072208;28;20278;-59
2022/08/21 05:10:49;;;;;;;;;;;564.00;2432.00;;;;;;5072272;28;19909;-58
2022/08/21 05:13:15;;;;;;;;;;;563.90;2432.00;;;;;;5072046;28;19909;-58
2022/08/21 05:15:41;;;;;;;;;;;588.90;2432.00;;;;;;5071311;28;19989;-57
2022/08/21 05:18:07;;;;;;;;;;;589.30;2432.00;;;;;;5071757;28;19908;-54
2022/08/21 05:20:34;;;;;;;;;;;614.80;2432.00;;;;;;5071431;28;19916;-57
2022/08/21 05:23:00;;;;;;;;;;;692.00;2432.00;;;;;;5071736;28;19912;-53
2022/08/21 05:25:25;;;;;;;;;;;717.30;2432.00;;;;;;5071586;28;20347;-58
2022/08/21 05:27:51;;;;;;;;;;;768.30;2355.20;;;;;;5071910;28;19908;-54
2022/08/21 05:30:16;;;;;;;;;;;819.40;2048.00;;;;;;5071882;28;19913;-59
2022/08/21 05:32:42;;;;;;;;;;;845.60;1868.80;;;;;;5071733;28;20362;-54
2022/08/21 05:35:08;;;;;;;;;;;870.70;1792.00;;;;;;5071845;28;19954;-54
2022/08/21 05:37:34;;;;;;;;;;;871.20;1715.20;;;;;;5071443;28;19908;-54
2022/08/21 05:40:00;;;;;;;;;;;820.00;1843.20;;;;;;5071480;28;19920;-55
2022/08/21 05:42:25;;;;;;;;;;;794.00;1971.20;;;;;;5071717;28;20354;-59
2022/08/21 05:44:51;;;;;;;;;;;768.00;2073.60;;;;;;5071540;28;19909;-54
2022/08/21 05:47:17;;;;;;;;;;;742.80;2150.40;;;;;;5071511;28;19908;-54
2022/08/21 05:49:42;;;;;;;;;;;717.10;2304.00;;;;;;5071452;28;19908;-55
2022/08/21 05:52:08;;;;;;;;;;;692.00;2432.00;;;;;;5071525;28;19912;-54
2022/08/21 05:54:35;;;;;;;;;;;691.70;2432.00;;;;;;5071220;28;19952;-56
2022/08/21 05:57:01;;;;;;;;;;;691.40;2432.00;;;;;;5071373;28;19908;-58
2022/08/21 05:59:27;;;;;;;;;;;691.30;2432.00;;;;;;5071500;28;19919;-59
2022/08/21 06:01:53;;;;;;;;;;;691.50;2432.00;;;;;;5071079;28;19924;-59
2022/08/21 06:04:18;;;;;;;;;;;717.70;2432.00;;;;;;5071537;28;19924;-54
2022/08/21 06:06:44;;;;;;;;;;;794.30;2201.60;;;;;;5071379;28;20264;-58
2022/08/21 06:09:10;;;;;;;;;;;845.00;1920.00;;;;;;5071303;28;19913;-57
2022/08/21 06:11:35;;;;;;;;;;;845.70;1843.20;;;;;;5071279;28;19955;-52
2022/08/21 06:14:01;;;;;;;;;;;845.40;1868.80;;;;;;5071185;28;19916;-54
2022/08/21 06:16:28;;;;;;;;;;;820.00;1868.80;;;;;;5071192;28;19995;-54
2022/08/21 06:18:53;;;;;;;;;;;793.70;1996.80;;;;;;5071016;28;19946;-54
2022/08/21 06:21:19;;;;;;;;;;;743.00;2099.20;;;;;;5071420;28;19943;-57
2022/08/21 06:23:44;;;;;;;;;;;742.50;2150.40;;;;;;5070954;28;19915;-57
2022/08/21 06:26:11;;;;;;;;;;;717.20;2252.80;;;;;;5071212;28;19909;-54
2022/08/21 06:28:37;;;;;;;;;;;716.90;2355.20;;;;;;5071187;28;20010;-58
2022/08/21 06:31:13;;;;;;;;;;;691.70;2432.00;;;;;;5070698;28;20009;-58
2022/08/21 06:33:39;;;;;;;;;;;691.60;2432.00;;;;;;5071172;28;19918;-58
2022/08/21 06:36:04;;;;;;;;;;;691.30;2432.00;;;;;;5070938;28;20301;-53
2022/08/21 06:38:30;;;;;;;;;;;666.00;2432.00;;;;;;5071004;28;19914;-56
2022/08/21 06:40:56;;;;;;;;;;;665.60;2432.00;;;;;;5071009;28;19916;-54
2022/08/21 06:43:21;;;;;;;;;;;640.90;2432.00;;;;;;5070692;28;20002;-57
2022/08/21 06:45:47;;;;;;;;;;;640.40;2432.00;;;;;;5070918;28;19912;-59
2022/08/21 06:48:12;;;;;;;;;;;640.50;2432.00;;;;;;5070630;28;20267;-59
2022/08/21 06:50:38;;;;;;;;;;;640.30;2432.00;;;;;;5070948;28;19970;-58
2022/08/21 06:53:08;;;;;;;;;;;615.20;2432.00;;;;;;5070543;28;19909;-56
2022/08/21 06:55:33;;;;;;;;;;;614.70;2432.00;;;;;;5070590;28;19936;-54
2022/08/21 06:57:59;;;;;;;;;;;614.60;2432.00;;;;;;5071663;28;19954;-58
2022/08/21 07:00:25;;;;;;;;;;;589.70;2432.00;;;;;;5074378;28;19955;-54
2022/08/21 07:02:50;;;;;;;;;;;589.60;2432.00;;;;;;5074862;28;19947;-55
2022/08/21 07:05:16;;;;;;;;;;;589.40;2432.00;;;;;;5073256;28;20374;-57
2022/08/21 07:07:41;;;;;;;;;;;589.30;2432.00;;;;;;5074402;28;19915;-59
2022/08/21 07:10:07;;;;;;;;;;;589.10;2432.00;;;;;;5074630;28;19916;-56
2022/08/21 07:12:33;;;;;;;;;;;589.00;2432.00;;;;;;5074452;28;19919;-58
2022/08/21 07:14:58;;;;;;;;;;;589.20;2432.00;;;;;;5074732;28;19931;-58
2022/08/21 07:17:24;;;;;;;;;;;589.10;2432.00;;;;;;5074365;28;19908;-58
2022/08/21 07:19:51;;;;;;;;;;;589.00;2432.00;;;;;;5074262;28;19923;-54
2022/08/21 07:22:18;;;;;;;;;;;589.00;2432.00;;;;;;5074587;28;19962;-58
2022/08/21 07:24:44;;;;;;;;;;;589.10;2432.00;;;;;;5074119;28;20373;-57
2022/08/21 07:27:09;;;;;;;;;;;589.30;2432.00;;;;;;5074287;28;19908;-55
2022/08/21 07:29:35;;;;;;;;;;;589.20;2432.00;;;;;;5074259;28;20250;-53
2022/08/21 07:32:00;;;;;;;;;;;589.30;2432.00;;;;;;5073988;28;19958;-53
2022/08/21 07:34:26;;;;;;;;;;;589.20;2432.00;;;;;;5074114;28;19962;-53
2022/08/21 07:36:52;;;;;;;;;;;589.30;2432.00;;;;;;5073809;28;19912;-58
2022/08/21 07:39:17;;;;;;;;;;;589.60;2432.00;;;;;;5074263;28;19970;-53
2022/08/21 07:41:43;;;;;;;;;;;589.60;2432.00;;;;;;5074050;28;19909;-54
2022/08/21 07:44:08;;;;;;;;;;;589.60;2432.00;;;;;;5074059;28;19992;-55
2022/08/21 07:46:34;;;;;;;;;;;589.60;2432.00;;;;;;5073813;28;19954;-56
2022/08/21 07:48:59;;;;;;;;;;;589.50;2432.00;;;;;;5073882;28;19909;-55
2022/08/21 07:51:26;;;;;;;;;;;589.50;2432.00;;;;;;5073933;28;19915;-56
2022/08/21 07:53:53;;;;;;;;;;;589.30;2432.00;;;;;;5073835;28;19912;-55
2022/08/21 07:56:19;;;;;;;;;;;589.30;2432.00;;;;;;5073908;28;19908;-55
2022/08/21 07:58:44;;;;;;;;;;;588.90;2432.00;;;;;;5073671;28;19991;-56
2022/08/21 08:01:10;;;;;;;;;;;589.00;2432.00;;;;;;5073461;28;20086;-54
2022/08/21 08:03:36;;;;;;;;;;;589.10;2432.00;;;;;;5073694;28;19920;-53
2022/08/21 08:06:04;;;;;;;;;;;588.90;2432.00;;;;;;5073317;28;20282;-56
2022/08/21 08:08:30;;;;;;;;;;;589.00;2432.00;;;;;;5073472;28;19912;-56
2022/08/21 08:10:56;;;;;;;;;;;589.10;2432.00;;;;;;5073659;28;19916;-57
2022/08/21 08:13:22;;;;;;;;;;;589.10;2432.00;;;;;;5073462;28;19946;-55
2022/08/21 08:15:48;;;;;;;;;;;589.30;2432.00;;;;;;5073583;28;20346;-55
2022/08/21 08:18:14;;;;;;;;;;;589.20;2432.00;;;;;;5073200;28;19914;-56
2022/08/21 08:20:40;;;;;;;;;;;589.30;2432.00;;;;;;5073097;28;19986;-56
2022/08/21 08:23:06;;;;;;;;;;;589.40;2432.00;;;;;;5071969;28;19919;-56
2022/08/21 08:25:32;;;;;;;;;;;589.20;2432.00;;;;;;5072597;28;19912;-56
2022/08/21 08:27:58;;;;;;;;;;;589.40;2432.00;;;;;;5072918;28;20400;-57
2022/08/21 08:30:23;;;;;;;;;;;589.50;2432.00;;;;;;5072445;28;20003;-58
2022/08/21 08:32:49;;;;;;;;;;;589.50;2432.00;;;;;;5072362;28;20378;-57
2022/08/21 08:35:15;;;;;;;;;;;589.70;2432.00;;;;;;5072277;28;19912;-56
2022/08/21 08:37:42;;;;;;;;;;;589.70;2432.00;;;;;;5072678;28;20270;-56
2022/08/21 08:40:13;;;;;;;;;;;589.60;2432.00;;;;;;5072434;28;20133;-57
2022/08/21 08:42:39;;;;;;;;;;;589.30;2432.00;;;;;;5072643;28;19908;-57
2022/08/21 08:45:09;;;;;;;;;;;589.10;2432.00;;;;;;5072330;28;20267;-57
2022/08/21 08:47:37;;;;;;;;;;;588.90;2432.00;;;;;;5072356;28;19909;-58
2022/08/21 08:50:23;;;;;;;;;;;588.80;2432.00;;;;;;5071858;28;19927;-56
2022/08/21 08:52:52;;;;;;;;;;;588.90;2432.00;;;;;;5071587;28;19908;-56
2022/08/21 08:55:31;;;;;;;;;;;588.90;2432.00;;;;;;5069994;28;19909;-57
2022/08/21 08:57:57;;;;;;;;;;;588.80;2432.00;;;;;;5069974;28;20349;-55
2022/08/21 09:00:24;;;;;;;;;;;588.90;2432.00;;;;;;5071204;28;19924;-57
2022/08/21 09:02:52;;;;;;;;;;;588.90;2432.00;;;;;;5072232;28;19920;-57
2022/08/21 09:05:29;;;;;;;;;;;564.10;2432.00;;;;;;5069822;28;19920;-56
2022/08/21 09:07:54;;;;;;;;;;;564.10;2432.00;;;;;;5071836;28;19934;-56
2022/08/21 09:10:23;;;;;;;;;;;564.10;2432.00;;;;;;5071523;28;19913;-57
2022/08/21 09:12:48;;;;;;;;;;;564.00;2432.00;;;;;;5071726;28;19913;-56
2022/08/21 09:15:23;;;;;;;;;;;564.00;2432.00;;;;;;5071493;28;19920;-57
2022/08/21 09:17:56;;;;;;;;;;;564.00;2432.00;;;;;;5071789;28;19939;-57
2022/08/21 09:20:22;;;;;;;;;;;563.70;2432.00;;;;;;5071284;28;19962;-56
2022/08/21 09:22:53;;;;;;;;;;;564.00;2432.00;;;;;;5071543;28;19908;-56
2022/08/21 09:25:23;;;;;;;;;;;564.10;2432.00;;;;;;5069794;28;19915;-58
2022/08/21 09:27:50;;;;;;;;;;;588.80;2432.00;;;;;;5071945;28;20385;-55
2022/08/21 09:30:16;;;;;;;;;;;588.90;2432.00;;;;;;5071995;28;19912;-56
2022/08/21 09:32:42;;;;;;;;;;;588.90;2432.00;;;;;;5071667;28;19912;-57
2022/08/21 09:35:08;;;;;;;;;;;589.00;2432.00;;;;;;5071985;28;19908;-57
2022/08/21 09:37:44;;;;;;;;;;;589.10;2432.00;;;;;;5071571;28;19908;-55
2022/08/21 09:40:31;;;;;;;;;;;589.30;2432.00;;;;;;5071652;28;19920;-56
2022/08/21 09:42:58;;;;;;;;;;;589.30;2432.00;;;;;;5071977;28;19915;-55
2022/08/21 09:45:24;;;;;;;;;;;589.40;2432.00;;;;;;5071662;28;20363;-56
2022/08/21 09:47:49;;;;;;;;;;;589.40;2432.00;;;;;;5071870;28;19940;-57
2022/08/21 09:50:17;;;;;;;;;;;589.30;2432.00;;;;;;5071588;28;19912;-55
2022/08/21 09:52:48;;;;;;;;;;;589.30;2432.00;;;;;;5071196;28;19913;-58
2022/08/21 09:57:38;;;;;;;;;;;589.60;2432.00;;;;;;5071574;28;19909;-55
2022/08/21 09:58:06;;;;;;;;;;;589.70;2432.00;;;;;;5071358;28;19909;-55
2022/08/21 10:00:32;;;;;;;;;;;614.40;2432.00;;;;;;5071216;28;20015;-56
2022/08/21 10:03:19;;;;;;;;;;;614.40;2432.00;;;;;;5071433;28;20294;-56
2022/08/21 10:05:52;;;;;;;;;;;614.40;2432.00;;;;;;5071137;28;20354;-55
2022/08/21 10:08:22;;;;;;;;;;;614.50;2432.00;;;;;;5071520;28;19908;-55
2022/08/21 10:10:52;;;;;;;;;;;589.70;2432.00;;;;;;5071452;28;20369;-56
2022/08/21 10:13:33;;;;;;;;;;;589.60;2432.00;;;;;;5071350;28;19955;-56
2022/08/21 10:16:17;;;;;;;;;;;589.30;2432.00;;;;;;5071221;28;19916;-55
2022/08/21 10:18:43;;;;;;;;;;;589.20;2432.00;;;;;;5071250;28;20324;-55
2022/08/21 10:21:21;;;;;;;;;;;589.10;2432.00;;;;;;5071132;28;19920;-56
2022/08/21 10:23:56;;;;;;;;;;;588.90;2432.00;;;;;;5071154;28;20363;-57
2022/08/21 10:26:24;;;;;;;;;;;589.00;2432.00;;;;;;5070921;28;20333;-55
2022/08/21 10:29:05;;;;;;;;;;;589.20;2432.00;;;;;;5070932;28;19912;-56
2022/08/21 10:31:49;;;;;;;;;;;589.30;2432.00;;;;;;5070878;28;20366;-55
2022/08/21 10:34:20;;;;;;;;;;;589.50;2432.00;;;;;;5070291;28;20010;-56
2022/08/21 10:37:06;;;;;;;;;;;589.70;2432.00;;;;;;5071003;28;19915;-55
2022/08/21 10:39:55;;;;;;;;;;;614.50;2432.00;;;;;;5070882;28;19924;-55
2022/08/21 10:42:27;;;;;;;;;;;614.50;2432.00;;;;;;5009038;28;19910;-56
2022/08/21 10:44:53;;;;;;;;;;;614.40;2432.00;;;;;;5008935;28;19917;-56
2022/08/21 10:47:41;;;;;;;;;;;589.70;2432.00;;;;;;5009143;28;19910;-58
2022/08/21 10:50:10;;;;;;;;;;;614.40;2432.00;;;;;;4999917;28;20300;-56
2022/08/21 10:52:52;;;;;;;;;;;614.50;2432.00;;;;;;5008968;28;19909;-57
2022/08/21 10:55:21;;;;;;;;;;;614.80;2432.00;;;;;;5009053;28;19996;-58
2022/08/21 10:57:46;;;;;;;;;;;614.90;2432.00;;;;;;5009048;28;19940;-57
2022/08/21 11:00:14;;;;;;;;;;;615.10;2432.00;;;;;;5008665;28;19921;-58
2022/08/21 11:02:53;;;;;;;;;;;615.20;2432.00;;;;;;5008922;28;19925;-57
2022/08/21 11:05:33;;;;;;;;;;;615.10;2432.00;;;;;;4990908;28;20383;-57
2022/08/21 11:08:04;;;;;;;;;;;614.80;2432.00;;;;;;5007547;28;20279;-57
2022/08/21 11:10:33;;;;;;;;;;;614.80;2432.00;;;;;;5004991;28;20155;-57
2022/08/21 11:13:02;;;;;;;;;;;614.90;2432.00;;;;;;5007535;28;19909;-56
2022/08/21 11:15:34;;;;;;;;;;;614.80;2432.00;;;;;;5007419;28;19932;-55
2022/08/21 11:18:02;;;;;;;;;;;615.00;2432.00;;;;;;5007460;28;20016;-55
2022/08/21 11:20:31;;;;;;;;;;;615.00;2432.00;;;;;;5066919;28;19917;-56
2022/08/21 11:23:00;;;;;;;;;;;615.10;2432.00;;;;;;5069501;28;19920;-55
2022/08/21 11:25:29;;;;;;;;;;;615.00;2432.00;;;;;;5068778;28;19915;-56
2022/08/21 11:27:59;;;;;;;;;;;614.90;2432.00;;;;;;5067668;28;20282;-55
2022/08/21 11:30:27;;;;;;;;;;;615.00;2432.00;;;;;;5067096;28;19996;-55
2022/08/21 11:32:52;;;;;;;;;;;615.00;2432.00;;;;;;5067474;28;20338;-55
2022/08/21 11:35:37;;;;;;;;;;;614.80;2432.00;;;;;;5068131;28;19981;-56
2022/08/21 11:38:21;;;;;;;;;;;614.80;2432.00;;;;;;5067761;28;19955;-55
2022/08/21 11:40:59;;;;;;;;;;;614.40;2432.00;;;;;;5068503;28;20332;-55
2022/08/21 11:43:28;;;;;;;;;;;589.50;2432.00;;;;;;5067099;28;19912;-57
2022/08/21 11:46:03;;;;;;;;;;;589.50;2432.00;;;;;;5071917;28;19915;-55
2022/08/21 11:48:52;;;;;;;;;;;589.50;2432.00;;;;;;5071720;28;19919;-55
2022/08/21 11:51:21;;;;;;;;;;;589.30;2432.00;;;;;;5071838;28;20007;-56
2022/08/21 11:53:52;;;;;;;;;;;588.90;2432.00;;;;;;5070315;28;20000;-56
2022/08/21 11:56:20;;;;;;;;;;;588.80;2432.00;;;;;;5071964;28;19923;-56
2022/08/21 11:58:48;;;;;;;;;;;588.80;2432.00;;;;;;5071868;28;19915;-55
2022/08/21 12:01:25;;;;;;;;;;;588.90;2432.00;;;;;;5071230;28;20267;-56
2022/08/21 12:03:54;;;;;;;;;;;588.90;2432.00;;;;;;5071834;28;19912;-56
2022/08/21 12:06:28;;;;;;;;;;;588.90;2432.00;;;;;;5071608;28;19925;-55
2022/08/21 12:08:58;;;;;;;;;;;589.40;2432.00;;;;;;5070436;28;20003;-57
2022/08/21 12:11:25;;;;;;;;;;;589.60;2432.00;;;;;;5069735;28;19912;-55
2022/08/21 12:13:54;;;;;;;;;;;589.70;2432.00;;;;;;5070355;28;19913;-56
2022/08/21 12:16:29;;;;;;;;;;;614.50;2432.00;;;;;;5071335;28;19931;-55
2022/08/21 12:19:05;;;;;;;;;;;614.80;2432.00;;;;;;5070967;28;20334;-55
2022/08/21 12:21:31;;;;;;;;;;;615.10;2432.00;;;;;;5071429;28;19917;-57
2022/08/21 12:24:15;;;;;;;;;;;615.20;2432.00;;;;;;5071145;28;20366;-56
2022/08/21 12:26:51;;;;;;;;;;;615.20;2432.00;;;;;;5070881;28;19912;-56
2022/08/21 12:29:24;;;;;;;;;;;615.20;2432.00;;;;;;5068883;28;19954;-57
2022/08/21 12:31:54;;;;;;;;;;;640.20;2432.00;;;;;;5071161;28;19951;-56
2022/08/21 12:34:20;;;;;;;;;;;640.60;2432.00;;;;;;5074562;28;20382;-56
2022/08/21 12:37:06;;;;;;;;;;;640.60;2432.00;;;;;;5072639;28;19919;-57
2022/08/21 12:39:33;;;;;;;;;;;640.80;2432.00;;;;;;5072732;28;19912;-57
2022/08/21 12:42:04;;;;;;;;;;;640.70;2432.00;;;;;;5073004;28;19919;-56
2022/08/21 12:44:32;;;;;;;;;;;640.90;2432.00;;;;;;5072944;28;19909;-57
2022/08/21 12:47:01;;;;;;;;;;;640.60;2432.00;;;;;;5072897;28;19916;-58
2022/08/21 12:49:30;;;;;;;;;;;640.50;2432.00;;;;;;5072979;28;19909;-56
2022/08/21 12:52:16;;;;;;;;;;;640.20;2432.00;;;;;;5072995;28;20051;-57
2022/08/21 12:54:43;;;;;;;;;;;640.10;2432.00;;;;;;5065201;28;19909;-57
2022/08/21 12:57:16;;;;;;;;;;;615.30;2432.00;;;;;;5071720;28;19912;-57
2022/08/21 12:59:42;;;;;;;;;;;640.20;2432.00;;;;;;5072185;28;19917;-57
2022/08/21 13:02:20;;;;;;;;;;;640.20;2432.00;;;;;;5072953;28;19919;-57
2022/08/21 13:04:46;;;;;;;;;;;640.20;2432.00;;;;;;5072516;28;20420;-56
2022/08/21 13:07:14;;;;;;;;;;;640.40;2432.00;;;;;;5072437;28;19969;-57
2022/08/21 13:09:48;;;;;;;;;;;640.20;2432.00;;;;;;5072722;28;19919;-57
2022/08/21 13:12:15;;;;;;;;;;;640.40;2432.00;;;;;;5072389;28;19912;-57
2022/08/21 13:14:42;;;;;;;;;;;640.50;2432.00;;;;;;5072418;28;19909;-57
2022/08/21 13:17:09;;;;;;;;;;;640.60;2432.00;;;;;;5072587;28;19959;-57
2022/08/21 13:19:34;;;;;;;;;;;640.50;2432.00;;;;;;5072003;28;19912;-58
2022/08/21 13:22:01;;;;;;;;;;;640.50;2432.00;;;;;;5072380;28;19912;-57
2022/08/21 13:24:32;;;;;;;;;;;640.50;2432.00;;;;;;5072326;28;19908;-56
2022/08/21 13:26:57;;;;;;;;;;;640.40;2432.00;;;;;;5072191;28;19909;-57
2022/08/21 13:29:34;;;;;;;;;;;640.10;2432.00;;;;;;5071932;28;19967;-56
2022/08/21 13:32:01;;;;;;;;;;;640.20;2432.00;;;;;;5072107;28;20463;-56
2022/08/21 13:34:30;;;;;;;;;;;640.10;2432.00;;;;;;5071869;28;19912;-57
2022/08/21 13:36:58;;;;;;;;;;;615.20;2432.00;;;;;;5071131;28;19935;-56
2022/08/21 13:39:24;;;;;;;;;;;615.10;2432.00;;;;;;5071127;28;20320;-56
2022/08/21 13:41:51;;;;;;;;;;;615.10;2432.00;;;;;;5071472;28;19912;-56
2022/08/21 13:44:26;;;;;;;;;;;615.00;2432.00;;;;;;5071431;28;19995;-56
2022/08/21 13:46:52;;;;;;;;;;;614.90;2432.00;;;;;;5069421;28;19908;-56